Time;durP1;ratioP1;P1;durP2;ratioP2;P2;SDS_P1;SDS_P2;PMS_P1;PMS_P2;Temp;Humidity;BMP_temperature;BMP_pressure;BME280_temperature;BME280_humidity;BME280_pressure;Samples;Min_cycle;Max_cycle;Signal;HPM_P1;HPM_P2
2022/04/20 00:00:41;;;;;;;45.77;17.33;;;;;;;2.93;82.96;100847.44;4934800;28;20039;-87
2022/04/20 00:03:07;;;;;;;47.63;17.63;;;;;;;2.90;83.21;100847.63;4953998;28;20031;-85
2022/04/20 00:05:33;;;;;;;46.47;17.45;;;;;;;2.90;83.18;100852.94;4923298;28;20043;-86
2022/04/20 00:08:03;;;;;;;53.85;19.05;;;;;;;2.79;83.63;100851.03;4948978;28;20029;-85
2022/04/20 00:10:29;;;;;;;55.35;19.88;;;;;;;2.78;83.98;100843.16;4938789;28;20031;-86
2022/04/20 00:12:55;;;;;;;48.88;19.25;;;;;;;2.94;83.64;100852.63;4930043;29;20031;-86
2022/04/20 00:15:20;;;;;;;50.83;18.73;;;;;;;2.91;83.24;100844.03;4905345;28;20050;-86
2022/04/20 00:17:46;;;;;;;49.53;18.40;;;;;;;2.96;82.84;100844.56;4946399;28;20030;-86
2022/04/20 00:20:14;;;;;;;59.33;18.93;;;;;;;3.07;82.80;100849.97;4937822;28;20039;-87
2022/04/20 00:22:40;;;;;;;55.45;18.88;;;;;;;3.04;82.59;100852.81;4948797;28;20286;-86
2022/04/20 00:25:06;;;;;;;61.38;21.17;;;;;;;3.01;82.99;100852.19;4931905;29;20032;-86
2022/04/20 00:27:38;;;;;;;61.42;22.10;;;;;;;3.11;82.66;100867.41;4933476;28;20058;-85
2022/04/20 00:30:07;;;;;;;65.47;21.20;;;;;;;3.15;82.59;100857.38;4937861;29;20058;-85
2022/04/20 00:32:35;;;;;;;66.78;22.40;;;;;;;3.08;82.54;100867.59;4922923;29;20031;-85
2022/04/20 00:35:00;;;;;;;64.38;22.23;;;;;;;3.14;82.74;100861.00;4943119;29;20167;-86
2022/04/20 00:37:26;;;;;;;74.33;23.90;;;;;;;2.98;82.94;100863.03;4942899;28;20081;-87
2022/04/20 00:39:52;;;;;;;81.05;24.75;;;;;;;2.86;83.23;100868.25;4937509;29;20782;-84
2022/04/20 00:42:18;;;;;;;85.65;26.00;;;;;;;2.69;83.47;100840.22;4916697;28;20038;-85
2022/04/20 00:44:46;;;;;;;89.20;25.90;;;;;;;2.79;83.38;100850.19;4936882;28;20035;-85
2022/04/20 00:47:12;;;;;;;95.53;26.83;;;;;;;2.69;83.24;100840.22;4963943;28;20027;-85
2022/04/20 00:49:37;;;;;;;83.93;24.77;;;;;;;2.57;83.48;100838.38;4974203;28;20031;-86
2022/04/20 00:52:03;;;;;;;97.80;25.50;;;;;;;2.57;83.97;100856.97;4965460;28;20448;-85
2022/04/20 00:54:29;;;;;;;98.40;26.23;;;;;;;2.66;83.90;100860.78;4943846;29;20061;-84
2022/04/20 00:56:55;;;;;;;84.67;25.17;;;;;;;2.65;83.72;100853.81;4963451;28;20039;-84
2022/04/20 00:59:22;;;;;;;88.03;25.05;;;;;;;2.63;83.33;100848.59;4897507;29;20441;-86
2022/04/20 01:01:48;;;;;;;89.50;26.30;;;;;;;2.85;82.37;100865.69;4927801;28;20046;-85
2022/04/20 01:04:14;;;;;;;83.68;25.73;;;;;;;2.77;82.59;100857.41;4933781;29;20046;-86
2022/04/20 01:06:39;;;;;;;85.77;25.13;;;;;;;2.73;82.31;100860.25;4952143;28;20066;-86
2022/04/20 01:09:05;;;;;;;80.13;25.00;;;;;;;2.70;82.92;100863.13;4935474;28;20480;-86
2022/04/20 01:11:30;;;;;;;74.40;23.30;;;;;;;2.65;83.14;100864.41;4944284;28;20099;-86
2022/04/20 01:13:56;;;;;;;80.60;23.90;;;;;;;2.57;83.75;100862.28;4942637;29;20035;-85
2022/04/20 01:16:21;;;;;;;82.80;23.67;;;;;;;2.51;83.48;100852.09;4926325;28;20395;-86
2022/04/20 01:18:49;;;;;;;84.55;24.88;;;;;;;2.54;83.86;100868.63;4923494;29;20051;-85
2022/04/20 01:21:14;;;;;;;90.80;25.50;;;;;;;2.48;83.70;100853.16;4937767;28;20121;-87
2022/04/20 01:23:40;;;;;;;87.37;26.43;;;;;;;2.50;83.57;100842.41;4936808;29;20113;-87
2022/04/20 01:26:09;;;;;;;79.50;24.55;;;;;;;2.53;83.61;100852.84;4923977;28;20027;-87
2022/04/20 01:28:35;;;;;;;74.82;24.58;;;;;;;2.32;83.90;100837.41;4935789;29;20090;-87
2022/04/20 01:31:02;;;;;;;75.43;23.40;;;;;;;2.53;83.74;100855.50;4939499;28;20031;-87
2022/04/20 01:33:28;;;;;;;64.78;22.40;;;;;;;2.54;83.20;100846.56;4932922;28;20103;-87
2022/04/20 01:35:53;;;;;;;68.13;22.13;;;;;;;2.39;83.63;100864.38;4963684;28;20448;-86
2022/04/20 01:38:19;;;;;;;66.57;23.23;;;;;;;2.35;83.63;100862.88;4912586;29;20282;-87
2022/04/20 01:40:44;;;;;;;65.70;23.40;;;;;;;2.41;83.66;100872.22;4921398;28;20026;-87
2022/04/20 01:43:10;;;;;;;57.38;22.05;;;;;;;2.48;83.20;100849.63;4944780;29;20034;-86
2022/04/20 01:45:35;;;;;;;54.53;21.83;;;;;;;2.50;82.87;100850.38;4937490;28;20042;-86
2022/04/20 01:48:01;;;;;;;61.90;22.23;;;;;;;2.46;83.23;100862.16;4915932;29;20400;-86
2022/04/20 01:50:26;;;;;;;57.27;22.00;;;;;;;2.41;83.25;100856.31;4934355;28;20059;-86
2022/04/20 01:52:52;;;;;;;67.40;22.73;;;;;;;2.31;83.84;100862.22;4944353;29;20035;-87
2022/04/20 01:55:18;;;;;;;57.73;21.37;;;;;;;2.28;84.34;100854.47;4953878;28;20050;-87
2022/04/20 01:57:46;;;;;;;66.82;22.08;;;;;;;2.42;83.97;100861.50;4913480;28;20138;-87
2022/04/20 02:00:12;;;;;;;60.05;22.10;;;;;;;2.32;83.91;100848.03;4931966;29;20437;-87
2022/04/20 02:02:40;;;;;;;60.83;23.35;;;;;;;2.29;84.51;100853.53;4919563;29;20043;-85
2022/04/20 02:05:10;;;;;;;59.97;21.90;;;;;;;2.40;84.15;100854.63;4934438;29;20039;-86
2022/04/20 02:07:36;;;;;;;59.78;22.38;;;;;;;2.33;84.14;100844.41;4927424;28;20039;-85
2022/04/20 02:10:02;;;;;;;65.32;22.27;;;;;;;2.47;83.99;100866.50;4941626;29;20027;-87
2022/04/20 02:12:31;;;;;;;58.47;20.40;;;;;;;2.41;84.08;100849.22;4941007;28;20027;-88
2022/04/20 02:14:56;;;;;;;53.40;20.50;;;;;;;2.43;83.80;100851.75;4962370;28;20043;-86
2022/04/20 02:17:22;;;;;;;64.83;22.13;;;;;;;2.43;84.26;100868.50;4964240;28;20033;-86
2022/04/20 02:19:48;;;;;;;61.23;21.33;;;;;;;2.39;84.27;100861.72;4935169;29;20282;-86
2022/04/20 02:22:14;;;;;;;60.88;20.95;;;;;;;2.31;84.71;100862.22;4936528;29;20138;-87
2022/04/20 02:24:42;;;;;;;57.05;20.20;;;;;;;2.24;84.67;100855.63;4929661;29;20505;-87
2022/04/20 02:27:16;;;;;;;58.33;20.58;;;;;;;2.20;84.40;100848.84;4941472;28;20567;-86
2022/04/20 02:29:41;;;;;;;64.63;20.73;;;;;;;2.17;84.78;100854.34;4922632;29;20106;-86
2022/04/20 02:32:08;;;;;;;62.37;19.87;;;;;;;2.07;84.89;100848.81;4935237;28;20037;-87
2022/04/20 02:34:34;;;;;;;58.95;19.08;;;;;;;2.17;85.09;100854.34;4939283;28;20286;-87
2022/04/20 02:36:59;;;;;;;58.27;20.40;;;;;;;2.24;84.94;100862.75;4933297;28;20038;-86
2022/04/20 02:39:25;;;;;;;64.73;20.53;;;;;;;2.11;84.68;100865.38;4934698;29;20023;-88
2022/04/20 02:41:50;;;;;;;71.20;20.27;;;;;;;2.04;84.98;100850.81;4926995;28;20443;-87
2022/04/20 02:44:18;;;;;;;71.00;21.23;;;;;;;2.02;85.10;100848.25;4956821;28;20271;-86
2022/04/20 02:46:47;;;;;;;60.03;19.67;;;;;;;2.30;84.70;100849.94;4944703;28;20066;-87
2022/04/20 02:49:13;;;;;;;64.10;19.27;;;;;;;2.37;84.16;100849.53;4936013;28;20031;-87
2022/04/20 02:51:39;;;;;;;65.97;19.48;;;;;;;2.22;83.99;100830.16;4932302;28;20038;-86
2022/04/20 02:54:10;;;;;;;57.63;17.42;;;;;;;2.28;83.55;100846.53;4940434;29;20054;-87
2022/04/20 02:56:36;;;;;;;65.35;18.60;;;;;;;2.23;83.52;100845.16;4957389;28;20496;-86
2022/04/20 02:59:02;;;;;;;80.32;18.33;;;;;;;2.07;83.75;100830.25;4937364;28;20049;-86
2022/04/20 03:01:28;;;;;;;50.97;18.07;;;;;;;2.10;84.37;100847.75;4965128;28;20142;-87
2022/04/20 03:03:53;;;;;;;72.93;18.55;;;;;;;1.95;84.85;100854.09;4969389;28;20039;-87
2022/04/20 03:06:19;;;;;;;56.80;18.25;;;;;;;2.00;85.10;100862.56;4972186;28;20073;-88
2022/04/20 03:08:47;;;;;;;58.13;18.80;;;;;;;2.06;84.69;100851.53;4967380;29;20027;-84
2022/04/20 03:11:13;;;;;;;69.38;18.42;;;;;;;2.11;84.73;100868.03;4978357;28;20031;-87
2022/04/20 03:13:38;;;;;;;75.00;19.03;;;;;;;2.07;84.94;100869.19;4949824;28;20057;-87
2022/04/20 03:16:04;;;;;;;52.90;17.63;;;;;;;2.12;84.04;100864.41;4958423;28;20034;-86
2022/04/20 03:18:32;;;;;;;51.90;18.23;;;;;;;2.22;83.09;100873.44;4911910;29;20145;-88
2022/04/20 03:20:59;;;;;;;52.50;16.83;;;;;;;2.05;83.24;100865.78;4949291;28;20043;-87
2022/04/20 03:23:25;;;;;;;47.60;17.20;;;;;;;2.08;83.85;100886.78;4955417;29;20042;-85
2022/04/20 03:25:50;;;;;;;72.27;18.37;;;;;;;1.92;84.45;100883.44;4962486;28;20023;-86
2022/04/20 03:28:16;;;;;;;63.07;19.70;;;;;;;2.14;84.19;100878.44;4956549;29;20275;-85
2022/04/20 03:30:41;;;;;;;59.47;19.47;;;;;;;2.05;84.19;100879.03;4948131;29;20032;-86
2022/04/20 03:33:09;;;;;;;53.53;18.07;;;;;;;2.11;83.81;100876.84;4943868;29;20077;-84
2022/04/20 03:35:36;;;;;;;82.10;18.10;;;;;;;2.18;83.67;100879.06;4938186;29;20353;-85
2022/04/20 03:38:02;;;;;;;66.25;18.92;;;;;;;1.95;84.15;100875.28;4922615;29;20069;-88
2022/04/20 03:40:27;;;;;;;79.07;18.10;;;;;;;2.14;83.98;100885.53;4938125;28;20031;-86
2022/04/20 03:42:53;;;;;;;67.43;18.97;;;;;;;1.99;84.26;100885.59;4946553;28;20050;-87
2022/04/20 03:45:19;;;;;;;61.00;17.77;;;;;;;2.09;84.59;100893.81;4906609;28;20101;-88
2022/04/20 03:47:44;;;;;;;63.15;18.67;;;;;;;2.17;84.34;100891.47;4941659;29;20463;-88
2022/04/20 03:50:10;;;;;;;58.07;18.63;;;;;;;2.10;83.80;100884.88;4931586;29;20067;-86
2022/04/20 03:52:38;;;;;;;48.67;18.50;;;;;;;2.05;84.17;100894.94;4915186;28;20480;-88
2022/04/20 03:55:04;;;;;;;71.50;19.33;;;;;;;2.18;83.99;100902.94;4911891;29;20034;-88
2022/04/20 03:57:29;;;;;;;55.88;19.10;;;;;;;2.18;83.80;100898.50;4941011;28;20677;-85
2022/04/20 03:59:55;;;;;;;53.35;18.65;;;;;;;2.35;83.20;100897.38;4923459;29;20055;-87
2022/04/20 04:02:21;;;;;;;53.97;18.60;;;;;;;2.30;83.24;100908.28;4947061;28;20102;-86
2022/04/20 04:04:47;;;;;;;56.75;19.58;;;;;;;2.39;83.11;100905.97;4916103;29;20028;-86
2022/04/20 04:07:12;;;;;;;55.28;20.42;;;;;;;2.51;82.64;100905.16;4921781;29;20079;-86
2022/04/20 04:09:38;;;;;;;51.78;19.17;;;;;;;2.66;81.77;100912.09;4921099;29;20113;-88
2022/04/20 04:12:06;;;;;;;54.15;20.00;;;;;;;2.49;81.92;100892.00;4925597;29;20031;-86
2022/04/20 04:14:34;;;;;;;55.88;20.13;;;;;;;2.70;81.92;100910.94;4938193;29;20521;-86
2022/04/20 04:17:03;;;;;;;56.25;20.67;;;;;;;2.88;81.09;100890.25;4923972;28;20484;-87
2022/04/20 04:19:31;;;;;;;44.90;19.45;;;;;;;2.85;80.35;100881.63;4936296;29;20043;-86
2022/04/20 04:21:58;;;;;;;49.40;18.73;;;;;;;3.07;79.35;100900.44;4918658;29;20034;-88
2022/04/20 04:24:37;;;;;;;50.72;18.52;;;;;;;3.17;79.25;100904.16;4936536;29;20031;-85
2022/04/20 04:27:05;;;;;;;48.53;19.67;;;;;;;3.15;78.89;100908.72;4935069;29;20042;-84
2022/04/20 04:29:32;;;;;;;44.45;19.50;;;;;;;2.91;79.17;100875.91;4920300;29;20024;-86
2022/04/20 04:31:59;;;;;;;63.15;19.38;;;;;;;3.23;78.68;100912.63;4923319;29;20575;-85
2022/04/20 04:35:17;;;;;;;49.67;17.85;;;;;;;3.29;78.10;100917.53;4937821;29;20029;-84
2022/04/20 04:37:51;;;;;;;40.10;17.83;;;;;;;3.24;78.31;100931.13;4919947;29;20144;-87
2022/04/20 04:40:18;;;;;;;62.40;18.42;;;;;;;3.24;78.33;100930.28;4952659;28;20071;-90
2022/04/20 04:42:58;;;;;;;38.55;17.65;;;;;;;3.34;77.00;100932.19;4937364;29;20532;-86
2022/04/20 04:52:02;;;;;;;41.75;17.63;;;;;;;3.62;74.50;100929.41;4953445;29;20062;-87
2022/04/20 04:54:35;;;;;;;37.40;16.33;;;;;;;3.48;75.12;100923.25;4938549;29;20037;-87
2022/04/20 04:57:00;;;;;;;37.30;17.67;;;;;;;3.46;74.89;100911.84;4919443;28;20133;-86
2022/04/20 04:59:27;;;;;;;33.20;16.88;;;;;;;3.73;74.27;100935.66;4937127;29;20080;-90
2022/04/20 05:01:57;;;;;;;46.72;17.38;;;;;;;3.73;74.37;100927.66;4946966;28;20109;-86
2022/04/20 05:04:23;;;;;;;39.97;18.60;;;;;;;3.84;75.34;100934.00;4939702;29;21397;-87
2022/04/20 05:07:45;;;;;;;37.47;17.63;;;;;;;4.07;74.18;100935.00;4936350;29;20121;-86
2022/04/20 05:10:11;;;;;;;45.75;20.42;;;;;;;4.35;73.15;100949.78;4938869;29;20031;-84
2022/04/20 05:12:39;;;;;;;46.97;19.70;;;;;;;4.57;71.81;100933.06;4954285;28;20177;-83
2022/04/20 05:15:08;;;;;;;39.83;19.45;;;;;;;4.74;71.33;100940.63;4954053;29;20065;-86
2022/04/20 05:17:49;;;;;;;45.10;19.85;;;;;;;5.50;68.88;100922.31;4952985;28;20078;-87
2022/04/20 05:20:14;;;;;;;59.10;21.25;;;;;;;5.68;68.58;100931.50;4921192;29;20053;-86
2022/04/20 05:26:02;;;;;;;47.25;20.55;;;;;;;6.52;66.34;100947.00;4955616;29;20138;-87
2022/04/20 05:28:52;;;;;;;45.67;21.20;;;;;;;6.46;66.15;100953.72;4921088;29;20031;-88
2022/04/20 05:31:19;;;;;;;45.65;19.70;;;;;;;6.98;64.50;100941.31;4941886;28;20046;-87
2022/04/20 05:33:46;;;;;;;50.63;19.70;;;;;;;7.82;62.45;100945.66;4935993;29;20038;-85
2022/04/20 05:36:12;;;;;;;38.67;20.33;;;;;;;8.87;58.65;100920.94;4923329;29;20089;-86
2022/04/20 05:41:40;;;;;;;33.10;18.77;;;;;;;12.18;49.09;100947.94;4951802;28;20043;-87
2022/04/20 05:44:10;;;;;;;37.00;19.52;;;;;;;13.89;44.52;100922.63;4931429;29;20771;-87
2022/04/20 05:46:36;;;;;;;38.95;18.40;;;;;;;15.22;41.87;100939.63;4923071;28;20475;-88
2022/04/20 05:49:02;;;;;;;41.00;20.48;;;;;;;16.00;39.15;100947.22;4926537;29;20536;-89
2022/04/20 05:51:30;;;;;;;44.28;19.35;;;;;;;17.46;37.16;100930.63;4948480;28;20042;-92
2022/04/20 05:54:02;;;;;;;39.17;20.20;;;;;;;19.05;34.23;100933.03;4943205;28;20022;-91
2022/04/20 05:56:27;;;;;;;39.38;19.90;;;;;;;20.54;30.68;100914.09;4937852;29;20095;-87
2022/04/20 05:58:54;;;;;;;43.13;20.17;;;;;;;22.04;29.32;100924.84;4940106;29;20039;-88
2022/04/20 06:01:22;;;;;;;40.42;20.38;;;;;;;23.11;27.53;100912.34;4935301;29;20042;-88
2022/04/20 06:03:49;;;;;;;32.03;19.88;;;;;;;23.82;25.22;100912.28;4901948;29;20135;-89
2022/04/20 06:06:35;;;;;;;39.50;20.25;;;;;;;25.08;24.66;100897.56;4909773;29;20655;-91
2022/04/20 06:09:00;;;;;;;33.72;19.13;;;;;;;25.14;22.60;100896.53;4969085;28;20027;-88
2022/04/20 06:11:28;;;;;;;34.80;19.88;;;;;;;24.82;23.12;100897.97;4933612;28;20451;-93
2022/04/20 06:13:57;;;;;;;34.90;19.40;;;;;;;25.11;23.00;100903.38;4911982;29;20064;-90
2022/04/20 06:16:23;;;;;;;41.53;20.02;;;;;;;25.89;22.14;100900.63;4934832;28;20039;-90
2022/04/20 06:18:52;;;;;;;44.50;21.73;;;;;;;26.88;21.23;100910.47;4907680;29;20027;-90
2022/04/20 06:21:18;;;;;;;41.42;22.10;;;;;;;27.65;20.38;100885.28;4920515;28;20072;-92
2022/04/20 06:23:43;;;;;;;40.75;22.85;;;;;;;27.41;20.34;100896.75;4927901;29;20031;-89
2022/04/20 06:26:12;;;;;;;42.03;22.13;;;;;;;27.98;19.79;100901.47;4930597;29;20505;-90
2022/04/20 06:28:40;;;;;;;50.65;23.65;;;;;;;28.05;20.22;100900.38;4915737;29;20039;-90
2022/04/20 06:31:06;;;;;;;45.13;22.10;;;;;;;28.63;19.22;100884.47;4899669;28;20118;-91
2022/04/20 06:33:37;;;;;;;46.55;24.83;;;;;;;28.51;18.98;100889.44;4918993;29;20138;-88
2022/04/20 06:36:03;;;;;;;41.45;25.05;;;;;;;28.58;18.96;100888.06;4916298;29;20411;-91
2022/04/20 06:38:32;;;;;;;39.70;25.63;;;;;;;28.82;18.57;100877.28;4913269;29;20122;-91
2022/04/20 06:41:06;;;;;;;30.35;20.95;;;;;;;28.12;18.99;100873.31;4913058;28;20104;-91
2022/04/20 06:43:32;;;;;;;30.15;19.50;;;;;;;26.31;20.64;100878.75;4905563;29;20671;-89
2022/04/20 06:45:58;;;;;;;35.85;20.33;;;;;;;27.13;20.05;100884.97;4892698;28;20039;-92
2022/04/20 06:48:25;;;;;;;36.90;20.30;;;;;;;27.09;19.99;100883.88;4919811;29;20472;-91
2022/04/20 06:51:24;;;;;;;35.50;21.30;;;;;;;27.99;19.51;100886.53;4914807;29;20027;-91
2022/04/20 06:59:23;;;;;;;35.63;16.97;;;;;;;28.86;18.27;100871.19;4922912;28;20126;-89
2022/04/20 07:01:49;;;;;;;30.08;14.88;;;;;;;28.46;17.86;100867.28;4903759;28;20687;-91
2022/04/20 07:04:14;;;;;;;20.33;13.30;;;;;;;28.73;18.28;100870.66;4957289;28;20042;-90
2022/04/20 07:06:43;;;;;;;19.35;13.55;;;;;;;28.60;19.08;100862.91;4908242;28;20391;-88
2022/04/20 07:09:14;;;;;;;21.45;13.52;;;;;;;29.04;19.47;100867.84;4963120;28;20411;-88
2022/04/20 07:11:39;;;;;;;19.08;13.68;;;;;;;29.61;18.47;100855.50;4905135;28;20035;-92
2022/04/20 07:14:06;;;;;;;34.53;15.98;;;;;;;28.38;18.32;100854.84;4934718;29;20095;-93
2022/04/20 07:16:35;;;;;;;33.75;15.73;;;;;;;28.20;18.88;100865.31;4934492;28;20030;-94
2022/04/20 07:19:00;;;;;;;22.85;15.52;;;;;;;26.81;19.92;100856.59;4950179;29;20036;-94
2022/04/20 07:21:29;;;;;;;20.80;15.35;;;;;;;27.31;19.82;100858.06;4927763;28;20035;-92
2022/04/20 07:23:55;;;;;;;26.05;15.55;;;;;;;27.13;19.67;100862.91;4933204;29;20071;-95
2022/04/20 07:26:21;;;;;;;26.67;16.00;;;;;;;27.35;19.21;100849.00;4902034;29;20038;-93
2022/04/20 07:28:49;;;;;;;24.98;15.75;;;;;;;27.05;20.33;100849.63;4918452;29;20053;-93
2022/04/20 07:31:14;;;;;;;29.80;17.67;;;;;;;27.31;20.16;100864.41;4898022;29;20038;-88
2022/04/20 07:33:42;;;;;;;40.45;22.55;;;;;;;24.69;23.32;100858.97;4923289;29;20122;-91
2022/04/20 07:36:08;;;;;;;34.10;23.30;;;;;;;25.16;22.77;100877.84;4908325;29;20095;-92
2022/04/20 07:38:34;;;;;;;37.88;23.08;;;;;;;25.73;22.06;100841.78;4920507;29;20171;-93
2022/04/20 07:41:00;;;;;;;36.45;20.98;;;;;;;26.07;22.26;100847.94;4931931;28;20030;-91
2022/04/20 07:43:28;;;;;;;27.63;19.95;;;;;;;25.95;21.91;100840.94;4940859;29;20035;-93
2022/04/20 07:45:54;;;;;;;28.35;18.30;;;;;;;25.79;22.22;100851.72;4920759;29;20027;-91
2022/04/20 07:48:19;;;;;;;25.23;19.00;;;;;;;24.67;23.90;100839.16;4917866;29;20194;-90
2022/04/20 07:50:47;;;;;;;28.42;19.50;;;;;;;24.48;23.35;100839.41;4935109;28;20127;-87
2022/04/20 07:53:15;;;;;;;23.85;18.80;;;;;;;25.30;22.75;100815.91;4930237;29;20578;-88
2022/04/20 07:55:46;;;;;;;25.92;17.70;;;;;;;24.34;23.71;100816.88;4938730;28;20069;-90
2022/04/20 07:58:13;;;;;;;25.73;17.60;;;;;;;24.93;23.56;100830.19;4933490;28;20027;-92
2022/04/20 08:00:39;;;;;;;21.83;15.65;;;;;;;23.80;24.26;100803.53;4921890;28;20050;-96
2022/04/20 08:03:10;;;;;;;26.23;16.23;;;;;;;22.12;26.99;100831.47;4934172;29;20128;-92
2022/04/20 08:05:41;;;;;;;19.98;15.93;;;;;;;21.84;27.14;100815.63;4947525;28;20055;-90
2022/04/20 08:08:07;;;;;;;17.40;14.15;;;;;;;21.76;27.17;100795.97;4921253;29;20027;-88
2022/04/20 08:10:38;;;;;;;17.65;13.40;;;;;;;21.58;27.26;100808.59;4916902;29;20437;-90
2022/04/20 08:15:50;;;;;;;18.88;11.77;;;;;;;20.52;28.76;100829.63;4945219;28;20566;-91
2022/04/20 08:18:20;;;;;;;13.27;10.75;;;;;;;19.72;29.81;100800.16;4929579;28;20582;-89
2022/04/20 08:20:46;;;;;;;12.60;10.27;;;;;;;20.25;29.39;100826.25;4961960;28;20038;-91
2022/04/20 08:23:12;;;;;;;18.42;9.90;;;;;;;19.67;30.03;100815.47;4926438;29;20067;-91
2022/04/20 08:25:43;;;;;;;18.98;10.43;;;;;;;20.00;29.65;100801.69;4946645;29;20030;-88
2022/04/20 08:28:09;;;;;;;13.68;9.93;;;;;;;19.06;30.61;100814.84;4919167;29;20031;-91
2022/04/20 08:30:35;;;;;;;11.02;9.20;;;;;;;18.58;31.30;100811.50;4931049;28;20103;-92
2022/04/20 08:33:07;;;;;;;11.55;9.10;;;;;;;18.16;31.97;100819.84;4916313;29;20142;-89
2022/04/20 08:35:38;;;;;;;10.95;8.77;;;;;;;17.50;33.13;100807.72;4909231;28;20039;-88
2022/04/20 08:38:04;;;;;;;13.55;9.52;;;;;;;18.69;31.99;100814.44;4927427;29;20170;-90
2022/04/20 08:40:32;;;;;;;12.88;10.27;;;;;;;18.83;31.89;100819.91;4936530;28;20031;-90
2022/04/20 08:43:05;;;;;;;13.93;10.50;;;;;;;18.90;31.73;100818.03;4939541;29;20035;-89
2022/04/20 08:45:32;;;;;;;12.35;8.80;;;;;;;19.70;30.76;100802.25;4919576;29;20363;-89
2022/04/20 08:47:58;;;;;;;9.43;7.95;;;;;;;19.01;31.65;100808.34;4953017;28;20023;-89
2022/04/20 08:50:24;;;;;;;;;;;;;;;18.93;32.69;100823.03;4948987;29;20046;-90
2022/04/20 08:52:51;;;;;;;10.23;8.30;;;;;;;18.63;32.30;100798.09;4956276;28;19911;-90
2022/04/20 08:55:18;;;;;;;11.00;8.52;;;;;;;18.11;33.04;100784.28;4951477;28;20039;-91
2022/04/20 08:57:48;;;;;;;8.82;7.22;;;;;;;18.45;32.96;100805.03;4942952;28;20061;-90
2022/04/20 09:00:21;;;;;;;11.88;8.50;;;;;;;18.98;32.55;100810.44;4921754;29;20085;-91
2022/04/20 09:03:07;;;;;;;9.65;8.65;;;;;;;18.27;33.44;100772.16;4920242;28;20032;-91
2022/04/20 09:05:34;;;;;;;15.50;8.63;;;;;;;18.32;34.07;100803.13;4938315;28;20035;-90
2022/04/20 09:08:20;;;;;;;8.40;7.50;;;;;;;18.61;33.22;100817.38;4927639;28;20027;-90
2022/04/20 09:10:51;;;;;;;10.40;8.20;;;;;;;18.30;34.06;100793.50;4923159;28;20412;-91
2022/04/20 09:13:16;;;;;;;8.25;7.07;;;;;;;17.01;36.46;100811.44;4920894;29;20036;-91
2022/04/20 09:15:43;;;;;;;;;;;;;;;17.12;36.74;100814.66;4927835;28;20050;-92
2022/04/20 09:18:12;;;;;;;9.45;7.70;;;;;;;16.93;37.44;100798.03;4914089;29;20276;-89
2022/04/20 09:20:40;;;;;;;10.60;7.63;;;;;;;16.31;39.15;100799.59;4939458;28;20033;-92
2022/04/20 09:23:14;;;;;;;10.25;8.30;;;;;;;16.60;39.10;100795.91;4923228;29;20152;-93
2022/04/20 09:25:41;;;;;;;10.80;8.05;;;;;;;17.65;37.98;100804.00;4914412;28;20075;-92
2022/04/20 09:28:16;;;;;;;9.20;8.13;;;;;;;18.21;36.28;100781.16;4930889;28;20367;-91
2022/04/20 09:30:42;;;;;;;16.25;8.48;;;;;;;18.57;35.83;100788.91;4892893;28;20119;-92
2022/04/20 09:33:17;;;;;;;12.73;8.65;;;;;;;18.62;35.62;100802.72;4923314;29;20035;-92
2022/04/20 09:35:44;;;;;;;9.18;7.28;;;;;;;18.27;34.95;100804.81;4906361;29;20035;-92
2022/04/20 09:38:14;;;;;;;12.43;8.15;;;;;;;18.55;35.73;100815.50;4919565;29;20031;-91
2022/04/20 09:40:48;;;;;;;11.93;8.45;;;;;;;18.68;35.57;100817.38;4931251;28;20503;-93
2022/04/20 09:43:26;;;;;;;8.30;6.90;;;;;;;17.33;36.57;100802.84;4915055;29;20054;-92
2022/04/20 09:46:08;;;;;;;;;;;;;;;17.87;36.01;100821.06;4904863;28;20062;-90
2022/04/20 09:48:55;;;;;;;12.32;8.85;;;;;;;16.77;39.78;100814.59;4940487;29;19922;-93
2022/04/20 09:51:23;;;;;;;13.35;8.88;;;;;;;15.96;41.64;100818.47;4943321;29;20027;-94
2022/04/20 09:53:53;;;;;;;23.55;9.90;;;;;;;16.36;40.24;100826.16;4925654;29;20033;-94
2022/04/20 09:56:27;;;;;;;10.07;8.27;;;;;;;15.03;43.59;100820.00;4956274;28;20070;-93
2022/04/20 09:58:59;;;;;;;12.15;9.75;;;;;;;14.91;44.49;100803.38;4920979;29;20092;-93
2022/04/20 10:01:27;;;;;;;14.27;10.00;;;;;;;15.01;44.27;100813.94;4904806;28;20041;-88
2022/04/20 10:04:18;;;;;;;11.52;9.25;;;;;;;14.13;46.56;100831.59;4926404;29;20031;-88
2022/04/20 10:06:55;;;;;;;14.98;10.27;;;;;;;13.87;47.65;100810.34;4940099;28;20034;-93
2022/04/20 10:09:32;;;;;;;14.70;11.05;;;;;;;13.99;47.75;100803.47;4919133;29;20413;-91
2022/04/20 10:11:59;;;;;;;12.85;10.45;;;;;;;13.90;47.54;100801.84;4938550;29;20035;-90
2022/04/20 10:17:22;;;;;;;14.98;10.90;;;;;;;12.97;49.97;100784.56;4925153;29;20098;-89
2022/04/20 10:19:56;;;;;;;15.13;11.02;;;;;;;12.75;51.14;100796.91;4905973;29;20581;-91
2022/04/20 10:22:29;;;;;;;14.05;10.60;;;;;;;13.59;48.94;100781.09;4894942;29;20035;-88
2022/04/20 10:25:00;;;;;;;15.82;10.20;;;;;;;14.76;45.76;100794.41;4920432;29;20078;-88
2022/04/20 10:27:46;;;;;;;14.18;10.45;;;;;;;15.14;44.39;100788.91;4929461;28;20093;-88
2022/04/20 10:31:12;;;;;;;11.68;8.70;;;;;;;14.22;46.82;100778.31;4942571;29;20118;-91
2022/04/20 10:33:40;;;;;;;11.52;9.98;;;;;;;14.42;46.20;100754.28;4949960;28;20024;-90
2022/04/20 10:36:11;;;;;;;14.35;10.60;;;;;;;14.63;45.73;100772.53;4906609;28;20458;-87
2022/04/20 10:38:38;;;;;;;13.07;9.88;;;;;;;14.93;45.08;100784.22;4961842;28;20098;-88
2022/04/20 10:41:17;;;;;;;12.50;9.38;;;;;;;14.35;46.43;100773.09;4924059;28;20023;-90
2022/04/20 10:43:43;;;;;;;15.02;10.45;;;;;;;14.85;45.38;100774.34;4947414;28;20526;-90
2022/04/20 10:46:14;;;;;;;;;;;;;;;15.90;42.29;100788.59;4906173;29;20051;-88
2022/04/20 10:48:58;;;;;;;14.30;9.63;;;;;;;16.53;41.50;100786.88;4953282;29;19922;-90
2022/04/20 10:51:30;;;;;;;18.65;10.02;;;;;;;17.05;40.00;100782.03;4936872;28;20119;-89
2022/04/20 10:54:22;;;;;;;15.10;9.32;;;;;;;15.74;42.78;100773.41;4961284;28;20038;-89
2022/04/20 10:56:51;;;;;;;12.48;9.60;;;;;;;15.49;43.50;100770.16;4941592;29;20108;-90
2022/04/20 10:59:18;;;;;;;10.90;9.00;;;;;;;14.24;46.57;100787.09;4889959;29;20216;-87
2022/04/20 11:02:02;;;;;;;13.07;9.05;;;;;;;14.69;45.67;100782.63;4911789;28;20105;-89
2022/04/20 11:04:46;;;;;;;10.55;9.35;;;;;;;14.76;45.72;100772.75;4957774;28;20062;-89
2022/04/20 11:07:15;;;;;;;9.70;7.93;;;;;;;13.85;46.91;100761.03;4941270;28;20042;-87
2022/04/20 11:09:41;;;;;;;14.73;9.32;;;;;;;13.76;48.57;100775.59;4938773;29;20023;-87
2022/04/20 11:18:45;;;;;;;11.98;9.00;;;;;;;13.73;48.19;100758.72;4884637;29;20055;-88
2022/04/20 11:21:23;;;;;;;14.63;9.40;;;;;;;13.32;48.97;100741.09;4858112;29;20037;-91
2022/04/20 11:24:07;;;;;;;14.20;10.68;;;;;;;13.56;49.19;100765.25;4918484;29;20035;-87
2022/04/20 11:27:02;;;;;;;13.75;9.45;;;;;;;13.86;48.45;100743.78;4930623;29;20883;-87
2022/04/20 11:29:31;;;;;;;12.90;10.43;;;;;;;13.69;48.92;100757.41;4935464;29;20043;-90
2022/04/20 11:32:09;;;;;;;13.10;9.40;;;;;;;13.55;49.55;100746.53;4916550;29;20027;-90
2022/04/20 11:34:42;;;;;;;12.55;10.15;;;;;;;13.14;50.86;100734.06;4925178;29;20488;-91
2022/04/20 11:37:23;;;;;;;10.52;8.95;;;;;;;13.35;50.74;100754.25;4916488;29;20039;-92
2022/04/20 11:39:49;;;;;;;13.95;10.48;;;;;;;12.80;52.18;100715.47;4946622;29;20031;-90
2022/04/20 11:42:17;;;;;;;13.90;10.45;;;;;;;13.29;51.23;100729.63;4939854;29;20031;-90
2022/04/20 11:44:44;;;;;;;12.75;9.13;;;;;;;12.80;52.76;100739.75;4912718;29;20107;-92
2022/04/20 11:47:11;;;;;;;12.02;9.10;;;;;;;13.16;51.81;100742.84;4968849;28;20089;-87
2022/04/20 11:49:46;;;;;;;13.45;9.38;;;;;;;13.46;51.07;100721.41;4906221;29;20043;-91
2022/04/20 11:52:21;;;;;;;12.73;9.38;;;;;;;13.30;51.47;100725.09;4933657;29;20023;-91
2022/04/20 11:54:54;;;;;;;12.32;9.13;;;;;;;12.74;52.11;100687.34;4950359;29;20027;-91
2022/04/20 11:57:20;;;;;;;13.43;9.13;;;;;;;12.95;52.10;100702.13;4918148;29;20542;-95